| time (UTC) | temp C | wind direction | speed KPH | gust KPH | rain 1hr cm | rain 24hr cm | rain mn cm | humidity % | barometer mb |
| 20260906234617 | 35 | 160 | 3.2 | 8.0 | 0.00 | 0.30 | 0.30 | 44 | 1013.4 |
| 20260906234112 | 35 | 150 | 1.6 | 3.2 | 0.00 | 0.30 | 0.30 | 44 | 1013.6 |
| 20260906233611 | 35 | 152 | 1.6 | 3.2 | 0.00 | 0.30 | 0.30 | 44 | 1013.5 |
| 20260906233110 | 35 | 159 | 0.0 | 9.7 | 0.00 | 0.30 | 0.30 | 46 | 1013.3 |
| 20260906232606 | 35 | 137 | 4.8 | 9.7 | 0.00 | 0.30 | 0.30 | 47 | 1013.7 |
| 20260906232106 | 35 | 131 | 1.6 | 8.0 | 0.00 | 0.30 | 0.30 | 46 | 1013.5 |
| 20260906231600 | 35 | 153 | 4.8 | 4.8 | 0.00 | 0.30 | 0.30 | 46 | 1013.7 |
| 20260906231056 | 35 | 159 | 3.2 | 3.2 | 0.00 | 0.30 | 0.30 | 46 | 1013.4 |
| 20260906230555 | 34 | 206 | 6.4 | 9.7 | 0.00 | 0.30 | 0.30 | 46 | 1013.6 |
| 20260906230054 | 34 | 171 | 4.8 | 8.0 | 0.00 | 0.30 | 0.30 | 47 | 1013.5 |
| 20260906225549 | 34 | 155 | 0.0 | 1.6 | 0.00 | 0.30 | 0.30 | 48 | 1013.4 |
| 20260906225044 | 34 | 219 | 11.3 | 16.1 | 0.00 | 0.30 | 0.30 | 47 | 1013.5 |
| 20260906224540 | 34 | 152 | 1.6 | 3.2 | 0.00 | 0.30 | 0.30 | 48 | 1013.5 |
| 20260906224037 | 35 | 163 | 6.4 | 9.7 | 0.00 | 0.30 | 0.30 | 47 | 1013.6 |
| 20260906223532 | 35 | 156 | 0.0 | 1.6 | 0.00 | 0.30 | 0.30 | 46 | 1013.5 |
| 20260906223032 | 36 | 180 | 4.8 | 8.0 | 0.00 | 0.30 | 0.30 | 44 | 1013.5 |
| 20260906222531 | 35 | 167 | 4.8 | 9.7 | 0.00 | 0.30 | 0.30 | 46 | 1013.7 |
| 20260906222028 | 35 | 186 | 4.8 | 11.3 | 0.00 | 0.30 | 0.30 | 47 | 1013.9 |
| 20260906221527 | 36 | 192 | 4.8 | 11.3 | 0.00 | 0.30 | 0.30 | 44 | 1013.8 |
| 20260906221023 | 36 | 183 | 1.6 | 12.9 | 0.00 | 0.30 | 0.30 | 44 | 1013.9 |
| 20260906220523 | 35 | 158 | 0.0 | 3.2 | 0.00 | 0.30 | 0.30 | 42 | 1014.0 |
| 20260906220019 | 36 | 208 | 1.6 | 8.0 | 0.00 | 0.30 | 0.30 | 43 | 1013.9 |
| 20260906215517 | 35 | 167 | 3.2 | 3.2 | 0.00 | 0.30 | 0.30 | 45 | 1013.9 |
| 20260906215015 | 35 | 151 | 6.4 | 9.7 | 0.00 | 0.30 | 0.30 | 44 | 1013.8 |
| 20260906214514 | 34 | 173 | 4.8 | 9.7 | 0.00 | 0.30 | 0.30 | 46 | 1014.2 |
| 20260906214009 | 32 | 150 | 3.2 | 4.8 | 0.00 | 0.30 | 0.30 | 51 | 1014.1 |
| 20260906213509 | 33 | 146 | 1.6 | 1.6 | 0.00 | 0.30 | 0.30 | 53 | 1013.9 |
| 20260906213009 | 32 | 137 | 0.0 | 0.0 | 0.00 | 0.30 | 0.30 | 58 | 1014.0 |
| 20260906212456 | 31 | 138 | 0.0 | 0.0 | 0.00 | 0.30 | 0.30 | 60 | 1014.4 |
| 20260906211951 | 31 | 137 | 0.0 | 0.0 | 0.00 | 0.30 | 0.30 | 65 | 1014.3 |
| 20260906211446 | 32 | 139 | 0.0 | 0.0 | 0.00 | 0.30 | 0.30 | 59 | 1014.4 |
| 20260906210941 | 33 | 136 | 0.0 | 1.6 | 0.00 | 0.30 | 0.30 | 56 | 1014.5 |
| 20260906210437 | 34 | 162 | 0.0 | 4.8 | 0.00 | 0.30 | 0.30 | 51 | 1014.5 |
| 20260906205930 | 35 | 162 | 0.0 | 4.8 | 0.00 | 0.30 | 0.30 | 47 | 1014.9 |
| 20260906205427 | 35 | 158 | 0.0 | 3.2 | 0.00 | 0.30 | 0.30 | 46 | 1014.7 |
| 20260906204923 | 34 | 143 | 0.0 | 1.6 | 0.00 | 0.30 | 0.30 | 46 | 1014.6 |
| 20260906204422 | 36 | 90 | 3.2 | 4.8 | 0.00 | 0.30 | 0.30 | 46 | 1014.7 |
| 20260906203921 | 36 | 167 | 1.6 | 4.8 | 0.00 | 0.30 | 0.30 | 43 | 1014.7 |
| 20260906203416 | 36 | 153 | 1.6 | 4.8 | 0.00 | 0.30 | 0.30 | 43 | 1014.9 |
| 20260906202914 | 36 | 141 | 3.2 | 4.8 | 0.00 | 0.30 | 0.30 | 42 | 1015.0 |
| 20260906202408 | 35 | 182 | 1.6 | 8.0 | 0.00 | 0.30 | 0.30 | 44 | 1015.1 |
| 20260906201908 | 35 | 183 | 4.8 | 8.0 | 0.00 | 0.30 | 0.30 | 45 | 1015.3 |
| 20260906201402 | 35 | 220 | 4.8 | 11.3 | 0.00 | 0.30 | 0.30 | 46 | 1015.0 |
| 20260906200857 | 35 | 238 | 8.0 | 11.3 | 0.00 | 0.30 | 0.30 | 47 | 1015.2 |
| 20260906200348 | 35 | 204 | 4.8 | 8.0 | 0.00 | 0.30 | 0.30 | 49 | 1015.4 |
| 20260906195848 | 34 | 200 | 3.2 | 4.8 | 0.00 | 0.30 | 0.30 | 48 | 1015.4 |
| 20260906195344 | 34 | 157 | 1.6 | 4.8 | 0.00 | 0.30 | 0.30 | 50 | 1015.2 |
| 20260906194840 | 32 | 149 | 1.6 | 3.2 | 0.00 | 0.30 | 0.30 | 53 | 1015.4 |
| 20260906194336 | 32 | 182 | 1.6 | 8.0 | 0.00 | 0.30 | 0.30 | 53 | 1015.4 |
| 20260906193831 | 33 | 199 | 9.7 | 11.3 | 0.00 | 0.30 | 0.30 | 53 | 1015.6 |
| 20260906193326 | 33 | 155 | 1.6 | 3.2 | 0.00 | 0.30 | 0.30 | 53 | 1015.6 |
| 20260906192821 | 33 | 157 | 1.6 | 8.0 | 0.00 | 0.30 | 0.30 | 53 | 1015.7 |
| 20260906192316 | 33 | 153 | 4.8 | 4.8 | 0.00 | 0.30 | 0.30 | 52 | 1015.6 |
| 20260906191815 | 32 | 142 | 0.0 | 1.6 | 0.00 | 0.30 | 0.30 | 52 | 1015.8 |
| 20260906191310 | 33 | 167 | 4.8 | 8.0 | 0.00 | 0.30 | 0.30 | 52 | 1015.8 |
| 20260906190809 | 32 | 153 | 1.6 | 1.6 | 0.00 | 0.30 | 0.30 | 53 | 1015.8 |
| 20260906190309 | 32 | 142 | 1.6 | 4.8 | 0.00 | 0.30 | 0.30 | 52 | 1016.0 |
| 20260906185803 | 32 | 151 | 0.0 | 3.2 | 0.00 | 0.30 | 0.30 | 54 | 1016.0 |
| 20260906185306 | 32 | 151 | 4.8 | 8.0 | 0.00 | 0.30 | 0.30 | 53 | 1015.9 |
| 20260906184757 | 32 | 154 | 3.2 | 9.7 | 0.00 | 0.30 | 0.30 | 53 | 1016.2 |
| 20260906184252 | 32 | 169 | 3.2 | 4.8 | 0.00 | 0.30 | 0.30 | 56 | 1016.2 |
| 20260906183748 | 32 | 201 | 3.2 | 8.0 | 0.00 | 0.30 | 0.30 | 57 | 1016.3 |
| 20260906183244 | 31 | 153 | 0.0 | 0.0 | 0.00 | 0.30 | 0.30 | 57 | 1016.2 |
| 20260906182744 | 31 | 140 | 1.6 | 4.8 | 0.00 | 0.30 | 0.30 | 59 | 1016.5 |
| 20260906182240 | 32 | 123 | 3.2 | 4.8 | 0.00 | 0.30 | 0.30 | 58 | 1016.3 |
| 20260906181735 | 33 | 185 | 1.6 | 3.2 | 0.00 | 0.30 | 0.30 | 58 | 1016.4 |
| 20260906181231 | 31 | 163 | 3.2 | 4.8 | 0.00 | 0.30 | 0.30 | 59 | 1016.7 |
| 20260906180725 | 32 | 101 | 4.8 | 4.8 | 0.00 | 0.30 | 0.30 | 60 | 1016.9 |
| 20260906180221 | 32 | 143 | 1.6 | 1.6 | 0.00 | 0.30 | 0.30 | 63 | 1017.0 |
| 20260906175718 | 31 | 140 | 1.6 | 4.8 | 0.00 | 0.30 | 0.30 | 58 | 1016.8 |
| 20260906175214 | 31 | 176 | 3.2 | 4.8 | 0.00 | 0.30 | 0.30 | 64 | 1017.1 |
| 20260906174712 | 30 | 160 | 1.6 | 3.2 | 0.00 | 0.30 | 0.30 | 66 | 1017.0 |
| 20260906174207 | 28 | 150 | 0.0 | 3.2 | 0.00 | 0.30 | 0.30 | 72 | 1016.9 |
| 20260906173702 | 28 | 137 | 0.0 | 0.0 | 0.00 | 0.30 | 0.30 | 75 | 1017.3 |
| 20260906173158 | 28 | 160 | 1.6 | 3.2 | 0.00 | 0.30 | 0.30 | 77 | 1017.3 |
| 20260906172657 | 28 | 153 | 0.0 | 1.6 | 0.00 | 0.30 | 0.30 | 77 | 1017.5 |
| 20260906172153 | 27 | 153 | 0.0 | 1.6 | 0.00 | 0.30 | 0.30 | 79 | 1017.6 |
| 20260906171653 | 27 | 153 | 0.0 | 1.6 | 0.00 | 0.30 | 0.30 | 82 | 1017.6 |
| 20260906171148 | 27 | 145 | 0.0 | 0.0 | 0.79 | 0.30 | 0.30 | 83 | 1017.7 |
| 20260906170644 | 28 | 145 | 0.0 | 1.6 | 0.61 | 0.28 | 0.28 | 79 | 1017.9 |
| 20260906170143 | 28 | 130 | 1.6 | 3.2 | 0.00 | 0.18 | 0.18 | 77 | 1017.9 |
| 20260906165640 | 28 | 150 | 0.0 | 1.6 | 0.00 | 0.18 | 0.18 | 78 | 1017.7 |
| 20260906165135 | 28 | 153 | 1.6 | 3.2 | 0.00 | 0.18 | 0.18 | 78 | 1017.9 |
| 20260906164633 | 26 | 136 | 0.0 | 0.0 | 0.00 | 0.18 | 0.18 | 82 | 1017.9 |
| 20260906164130 | 27 | 143 | 0.0 | 1.6 | 0.00 | 0.18 | 0.18 | 81 | 1017.8 |
| 20260906163625 | 26 | 122 | 0.0 | 1.6 | 0.00 | 0.18 | 0.18 | 83 | 1017.8 |
| 20260906163121 | 26 | 138 | 0.0 | 0.0 | 0.00 | 0.18 | 0.18 | 81 | 1017.8 |
| 20260906162618 | 26 | 139 | 0.0 | 0.0 | 0.18 | 0.18 | 0.18 | 81 | 1017.9 |
| 20260906162113 | 27 | 135 | 0.0 | 0.0 | 0.61 | 0.18 | 0.18 | 79 | 1017.8 |
| 20260906161613 | 28 | 138 | 0.0 | 0.0 | 0.48 | 0.13 | 0.13 | 76 | 1018.1 |
| 20260906161112 | 27 | 137 | 0.0 | 0.0 | 0.00 | 0.05 | 0.05 | 73 | 1017.9 |
| 20260906160610 | 27 | 139 | 0.0 | 0.0 | 0.00 | 0.05 | 0.05 | 73 | 1017.9 |
| 20260906160109 | 27 | 138 | 0.0 | 0.0 | 0.00 | 0.05 | 0.05 | 74 | 1017.9 |
| 20260906155607 | 27 | 138 | 0.0 | 0.0 | 0.00 | 0.05 | 0.05 | 75 | 1017.9 |
| 20260906155103 | 27 | 141 | 0.0 | 0.0 | 0.00 | 0.05 | 0.05 | 78 | 1017.7 |
| 20260906154558 | 26 | 157 | 0.0 | 1.6 | 0.00 | 0.05 | 0.05 | 82 | 1017.7 |
| 20260906154057 | 26 | 154 | 0.0 | 0.0 | 0.00 | 0.05 | 0.05 | 87 | 1017.8 |
| 20260906153556 | 26 | 154 | 0.0 | 1.6 | 0.00 | 0.05 | 0.05 | 89 | 1017.7 |
| 20260906153051 | 26 | 153 | 0.0 | 1.6 | 0.00 | 0.05 | 0.05 | 89 | 1017.5 |
| 20260906152550 | 26 | 159 | 0.0 | 0.0 | 0.00 | 0.05 | 0.05 | 87 | 1017.6 |
| 20260906152045 | 26 | 151 | 0.0 | 0.0 | 0.00 | 0.05 | 0.05 | 88 | 1017.4 |
| 20260906151540 | 26 | 142 | 0.0 | 1.6 | 0.00 | 0.05 | 0.05 | 90 | 1017.5 |
| 20260906151036 | 26 | 146 | 0.0 | 0.0 | 0.00 | 0.05 | 0.05 | 91 | 1017.5 |
| 20260906150531 | 25 | 136 | 0.0 | 0.0 | 0.00 | 0.05 | 0.05 | 91 | 1017.4 |
| 20260906150026 | 25 | 141 | 0.0 | 0.0 | 0.00 | 0.05 | 0.05 | 91 | 1017.3 |
| 20260906145524 | 25 | 141 | 0.0 | 1.6 | 0.13 | 0.05 | 0.05 | 91 | 1017.4 |
| 20260906145020 | 25 | 149 | 0.0 | 0.0 | 0.30 | 0.05 | 0.05 | 92 | 1017.4 |
| 20260906144508 | 25 | 148 | 1.6 | 3.2 | 0.18 | 0.03 | 0.03 | 90 | 1017.2 |
| 20260906144003 | 25 | 145 | 1.6 | 4.8 | 0.00 | 0.00 | 0.00 | 88 | 1017.6 |
| 20260906143458 | 26 | 176 | 1.6 | 3.2 | 0.00 | 0.00 | 0.00 | 88 | 1017.2 |
| 20260906142955 | 26 | 160 | 1.6 | 4.8 | 0.00 | 0.00 | 0.00 | 85 | 1017.2 |
| 20260906142448 | 26 | 148 | 0.0 | 3.2 | 0.00 | 0.00 | 0.00 | 83 | 1017.3 |
| 20260906141943 | 26 | 144 | 0.0 | 3.2 | 0.00 | 0.00 | 0.00 | 83 | 1017.4 |
| 20260906141437 | 26 | 144 | 0.0 | 1.6 | 0.00 | 0.00 | 0.00 | 83 | 1017.2 |
| 20260906140932 | 27 | 180 | 4.8 | 4.8 | 0.00 | 0.00 | 0.00 | 83 | 1017.4 |
| 20260906140427 | 27 | 145 | 0.0 | 4.8 | 0.00 | 0.00 | 0.00 | 83 | 1017.2 |
| 20260906135924 | 27 | 161 | 3.2 | 3.2 | 0.00 | 0.00 | 0.00 | 82 | 1017.1 |
| 20260906135418 | 27 | 148 | 0.0 | 3.2 | 0.00 | 0.00 | 0.00 | 82 | 1017.0 |
| 20260906134914 | 26 | 146 | 0.0 | 0.0 | 0.00 | 0.00 | 0.00 | 83 | 1017.1 |
| 20260906134409 | 26 | 152 | 0.0 | 1.6 | 0.00 | 0.00 | 0.00 | 83 | 1016.9 |
| 20260906133904 | 26 | 139 | 0.0 | 1.6 | 0.00 | 0.00 | 0.00 | 83 | 1016.7 |
| 20260906133400 | 26 | 144 | 0.0 | 0.0 | 0.00 | 0.00 | 0.00 | 83 | 1016.8 |
| 20260906132855 | 26 | 149 | 0.0 | 0.0 | 0.00 | 0.00 | 0.00 | 84 | 1016.7 |
| 20260906132350 | 26 | 152 | 0.0 | 0.0 | 0.00 | 0.00 | 0.00 | 85 | 1016.7 |
| 20260906131846 | 26 | 152 | 0.0 | 0.0 | 0.00 | 0.00 | 0.00 | 85 | 1016.7 |
| 20260906131341 | 26 | 152 | 0.0 | 0.0 | 0.00 | 0.00 | 0.00 | 86 | 1016.6 |
| 20260906130837 | 26 | 152 | 0.0 | 0.0 | 0.00 | 0.00 | 0.00 | 86 | 1016.5 |
| 20260906130336 | 25 | 148 | 0.0 | 0.0 | 0.00 | 0.00 | 0.00 | 87 | 1016.5 |
| 20260906125835 | 25 | 156 | 0.0 | 0.0 | 0.00 | 0.00 | 0.00 | 88 | 1016.6 |
| 20260906125332 | 25 | 139 | 0.0 | 0.0 | 0.00 | 0.00 | 0.00 | 89 | 1016.4 |
| 20260906124828 | 24 | 140 | 0.0 | 0.0 | 0.00 | 0.00 | 0.00 | 90 | 1016.3 |
| 20260906124324 | 23 | 140 | 0.0 | 0.0 | 0.00 | 0.00 | 0.00 | 90 | 1016.2 |
| 20260906123823 | 23 | 140 | 0.0 | 0.0 | 0.00 | 0.00 | 0.00 | 90 | 1016.1 |
| 20260906123318 | 23 | 140 | 0.0 | 0.0 | 0.00 | 0.00 | 0.00 | 90 | 1016.1 |
| 20260906122817 | 23 | 139 | 0.0 | 0.0 | 0.00 | 0.00 | 0.00 | 90 | 1016.1 |
| 20260906122312 | 23 | 140 | 0.0 | 0.0 | 0.00 | 0.00 | 0.00 | 91 | 1016.0 |
| 20260906121809 | 23 | 139 | 0.0 | 0.0 | 0.00 | 0.00 | 0.00 | 91 | 1015.8 |
| 20260906121259 | 23 | 141 | 0.0 | 0.0 | 0.00 | 0.00 | 0.00 | 91 | 1015.8 |
| 20260906120754 | 23 | 137 | 0.0 | 0.0 | 0.00 | 0.00 | 0.00 | 92 | 1015.8 |
| 20260906120246 | 23 | 151 | 0.0 | 0.0 | 0.00 | 0.00 | 0.00 | 92 | 1015.6 |
| 20260906115741 | 23 | 151 | 0.0 | 0.0 | 0.00 | 0.00 | 0.00 | 92 | 1015.6 |
| 20260906115236 | 23 | 152 | 0.0 | 0.0 | 0.00 | 0.00 | 0.00 | 92 | 1015.8 |
| 20260906114735 | 23 | 152 | 0.0 | 0.0 | 0.00 | 0.00 | 0.00 | 92 | 1015.5 |
| 20260906114230 | 23 | 152 | 0.0 | 0.0 | 0.00 | 0.00 | 0.00 | 92 | 1015.5 |
| 20260906113726 | 23 | 152 | 0.0 | 0.0 | 0.00 | 0.00 | 0.00 | 92 | 1015.5 |
| 20260906113224 | 23 | 152 | 0.0 | 0.0 | 0.00 | 0.00 | 0.00 | 92 | 1015.3 |
| 20260906112719 | 23 | 152 | 0.0 | 0.0 | 0.00 | 0.00 | 0.00 | 91 | 1015.5 |
| 20260906112216 | 23 | 152 | 0.0 | 0.0 | 0.00 | 0.00 | 0.00 | 92 | 1015.2 |
| 20260906111715 | 23 | 152 | 0.0 | 0.0 | 0.00 | 0.00 | 0.00 | 92 | 1015.2 |
| 20260906111210 | 23 | 152 | 0.0 | 0.0 | 0.00 | 0.00 | 0.00 | 92 | 1015.3 |
| 20260906110704 | 23 | 152 | 0.0 | 0.0 | 0.00 | 0.00 | 0.00 | 92 | 1015.0 |
| 20260906110154 | 23 | 152 | 0.0 | 0.0 | 0.00 | 0.00 | 0.00 | 91 | 1015.1 |
| 20260906105648 | 23 | 152 | 0.0 | 0.0 | 0.00 | 0.00 | 0.00 | 91 | 1014.9 |
| 20260906105144 | 23 | 152 | 0.0 | 0.0 | 0.00 | 0.00 | 0.00 | 91 | 1014.9 |
| 20260906104643 | 23 | 152 | 0.0 | 0.0 | 0.00 | 0.00 | 0.00 | 90 | 1015.0 |
| 20260906104137 | 23 | 152 | 0.0 | 0.0 | 0.00 | 0.00 | 0.00 | 90 | 1014.9 |
| 20260906103635 | 23 | 152 | 0.0 | 0.0 | 0.00 | 0.00 | 0.00 | 90 | 1014.9 |
| 20260906103130 | 24 | 151 | 0.0 | 0.0 | 0.00 | 0.00 | 0.00 | 90 | 1014.9 |
| 20260906102625 | 24 | 151 | 0.0 | 0.0 | 0.00 | 0.00 | 0.00 | 90 | 1014.9 |
| 20260906102114 | 24 | 151 | 0.0 | 0.0 | 0.00 | 0.00 | 0.00 | 89 | 1015.0 |
| 20260906101608 | 24 | 151 | 0.0 | 0.0 | 0.00 | 0.00 | 0.00 | 89 | 1014.9 |
| 20260906101103 | 25 | 151 | 0.0 | 0.0 | 0.00 | 0.00 | 0.00 | 89 | 1014.9 |
| 20260906100558 | 24 | 151 | 0.0 | 0.0 | 0.00 | 0.00 | 0.00 | 89 | 1014.7 |
| 20260906100053 | 25 | 152 | 0.0 | 0.0 | 0.00 | 0.00 | 0.00 | 89 | 1014.7 |
| 20260906095548 | 25 | 152 | 0.0 | 0.0 | 0.00 | 0.00 | 0.00 | 89 | 1014.5 |
| 20260906095043 | 25 | 151 | 0.0 | 0.0 | 0.00 | 0.00 | 0.00 | 88 | 1014.7 |
| 20260906094542 | 25 | 152 | 0.0 | 0.0 | 0.00 | 0.00 | 0.00 | 88 | 1015.1 |
| 20260906094038 | 25 | 152 | 0.0 | 0.0 | 0.00 | 0.00 | 0.00 | 87 | 1014.9 |
| 20260906093534 | 25 | 152 | 0.0 | 0.0 | 0.00 | 0.00 | 0.00 | 87 | 1014.7 |
| 20260906093034 | 25 | 152 | 0.0 | 0.0 | 0.00 | 0.00 | 0.00 | 86 | 1014.6 |
| 20260906092528 | 25 | 152 | 0.0 | 0.0 | 0.00 | 0.00 | 0.00 | 86 | 1014.9 |
| 20260906092024 | 25 | 152 | 0.0 | 0.0 | 0.00 | 0.00 | 0.00 | 85 | 1014.7 |
| 20260906091514 | 25 | 152 | 0.0 | 0.0 | 0.00 | 0.00 | 0.00 | 85 | 1014.5 |
| 20260906091011 | 26 | 153 | 0.0 | 0.0 | 0.00 | 0.00 | 0.00 | 85 | 1014.6 |
| 20260906090510 | 26 | 147 | 0.0 | 0.0 | 0.00 | 0.00 | 0.00 | 84 | 1014.6 |
| 20260906090005 | 26 | 169 | 0.0 | 3.2 | 0.00 | 0.00 | 0.00 | 84 | 1014.5 |
| 20260906085504 | 26 | 147 | 0.0 | 1.6 | 0.00 | 0.00 | 0.00 | 84 | 1014.4 |
| 20260906085004 | 26 | 151 | 0.0 | 0.0 | 0.00 | 0.00 | 0.00 | 83 | 1014.5 |
| 20260906084459 | 26 | 152 | 0.0 | 0.0 | 0.00 | 0.00 | 0.00 | 83 | 1014.7 |
| 20260906083957 | 26 | 152 | 0.0 | 1.6 | 0.00 | 0.00 | 0.00 | 83 | 1014.5 |
| 20260906083453 | 26 | 151 | 1.6 | 3.2 | 0.00 | 0.00 | 0.00 | 83 | 1014.7 |
| 20260906082952 | 26 | 152 | 0.0 | 0.0 | 0.00 | 0.00 | 0.00 | 83 | 1014.5 |
| 20260906082448 | 26 | 147 | 0.0 | 0.0 | 0.00 | 0.00 | 0.00 | 83 | 1014.4 |
| 20260906081943 | 26 | 151 | 0.0 | 0.0 | 0.00 | 0.00 | 0.00 | 83 | 1014.7 |
| 20260906081438 | 26 | 148 | 0.0 | 3.2 | 0.00 | 0.00 | 0.00 | 83 | 1014.7 |
| 20260906080934 | 26 | 147 | 0.0 | 3.2 | 0.00 | 0.00 | 0.00 | 83 | 1014.7 |
| 20260906080431 | 26 | 151 | 0.0 | 1.6 | 0.00 | 0.00 | 0.00 | 83 | 1014.9 |
| 20260906075931 | 26 | 144 | 0.0 | 3.2 | 0.00 | 0.00 | 0.00 | 82 | 1014.6 |
| 20260906075426 | 26 | 147 | 0.0 | 1.6 | 0.00 | 0.00 | 0.00 | 82 | 1014.6 |
| 20260906074920 | 26 | 147 | 0.0 | 3.2 | 0.00 | 0.00 | 0.00 | 82 | 1014.7 |
| 20260906074415 | 26 | 143 | 0.0 | 1.6 | 0.00 | 0.00 | 0.00 | 82 | 1014.9 |
| 20260906073914 | 26 | 145 | 0.0 | 1.6 | 0.00 | 0.00 | 0.00 | 81 | 1015.1 |
| 20260906073409 | 26 | 140 | 0.0 | 1.6 | 0.00 | 0.00 | 0.00 | 81 | 1015.0 |
| 20260906072905 | 26 | 156 | 0.0 | 1.6 | 0.00 | 0.00 | 0.00 | 81 | 1015.0 |
| 20260906072400 | 26 | 164 | 0.0 | 3.2 | 0.00 | 0.00 | 0.00 | 81 | 1015.1 |
| 20260906071856 | 26 | 145 | 0.0 | 8.0 | 0.00 | 0.00 | 0.00 | 81 | 1015.1 |
| 20260906071351 | 26 | 148 | 0.0 | 1.6 | 0.00 | 0.00 | 0.00 | 81 | 1015.4 |
| 20260906070847 | 26 | 136 | 0.0 | 3.2 | 0.00 | 0.00 | 0.00 | 81 | 1015.5 |
| 20260906070342 | 26 | 146 | 1.6 | 3.2 | 0.00 | 0.00 | 0.00 | 81 | 1015.2 |
| 20260906065832 | 26 | 146 | 0.0 | 3.2 | 0.00 | 0.00 | 0.00 | 80 | 1015.3 |
| 20260906065326 | 26 | 163 | 0.0 | 1.6 | 0.00 | 0.00 | 0.00 | 80 | 1015.4 |
| 20260906064822 | 26 | 169 | 1.6 | 3.2 | 0.00 | 0.00 | 0.00 | 80 | 1015.7 |
| 20260906064318 | 27 | 149 | 1.6 | 3.2 | 0.00 | 0.00 | 0.00 | 80 | 1015.6 |
| 20260906063813 | 27 | 158 | 3.2 | 3.2 | 0.00 | 0.00 | 0.00 | 80 | 1015.5 |
| 20260906063309 | 27 | 140 | 0.0 | 3.2 | 0.00 | 0.00 | 0.00 | 80 | 1015.5 |
| 20260906062804 | 27 | 150 | 0.0 | 3.2 | 0.00 | 0.00 | 0.00 | 79 | 1015.8 |
| 20260906062306 | 27 | 143 | 0.0 | 3.2 | 0.00 | 0.00 | 0.00 | 79 | 1015.7 |
| 20260906061758 | 27 | 166 | 3.2 | 8.0 | 0.00 | 0.00 | 0.00 | 79 | 1015.8 |
| 20260906061255 | 27 | 147 | 0.0 | 3.2 | 0.00 | 0.00 | 0.00 | 78 | 1015.7 |
| 20260906060750 | 27 | 198 | 1.6 | 3.2 | 0.00 | 0.00 | 0.00 | 78 | 1015.6 |
| 20260906060247 | 27 | 164 | 3.2 | 8.0 | 0.00 | 0.00 | 0.00 | 78 | 1015.7 |
| 20260906055743 | 27 | 154 | 3.2 | 4.8 | 0.00 | 0.00 | 0.00 | 78 | 1015.6 |
| 20260906055238 | 27 | 146 | 0.0 | 4.8 | 0.00 | 0.00 | 0.00 | 77 | 1015.6 |
| 20260906054733 | 27 | 180 | 1.6 | 3.2 | 0.00 | 0.00 | 0.00 | 77 | 1015.7 |
| 20260906054228 | 27 | 147 | 0.0 | 1.6 | 0.00 | 0.00 | 0.00 | 77 | 1015.6 |
| 20260906053725 | 27 | 163 | 0.0 | 1.6 | 0.00 | 0.00 | 0.00 | 77 | 1015.6 |
| 20260906053220 | 27 | 165 | 0.0 | 1.6 | 0.00 | 0.00 | 0.00 | 77 | 1015.9 |
| 20260906052715 | 27 | 151 | 1.6 | 3.2 | 0.00 | 0.00 | 0.00 | 77 | 1015.9 |
| 20260906052211 | 27 | 144 | 0.0 | 1.6 | 0.00 | 0.00 | 0.00 | 76 | 1015.6 |
| 20260906051708 | 27 | 152 | 0.0 | 4.8 | 0.00 | 0.00 | 0.00 | 76 | 1015.6 |
| 20260906051207 | 27 | 156 | 1.6 | 3.2 | 0.00 | 0.00 | 0.00 | 76 | 1015.7 |
| 20260906050703 | 27 | 147 | 0.0 | 3.2 | 0.00 | 0.00 | 0.00 | 76 | 1015.9 |
| 20260906050158 | 27 | 149 | 0.0 | 3.2 | 0.00 | 0.00 | 0.00 | 76 | 1016.0 |
| 20260906045656 | 27 | 147 | 0.0 | 3.2 | 0.00 | 0.00 | 0.00 | 75 | 1015.9 |
| 20260906045151 | 27 | 184 | 3.2 | 3.2 | 0.00 | 0.00 | 0.00 | 75 | 1015.8 |
| 20260906044648 | 27 | 187 | 1.6 | 11.3 | 0.00 | 0.00 | 0.00 | 75 | 1015.8 |
| 20260906044143 | 27 | 167 | 1.6 | 9.7 | 0.00 | 0.00 | 0.00 | 75 | 1015.8 |
| 20260906043638 | 27 | 149 | 3.2 | 4.8 | 0.00 | 0.00 | 0.00 | 75 | 1015.7 |
| 20260906043133 | 27 | 162 | 1.6 | 3.2 | 0.00 | 0.00 | 0.00 | 75 | 1015.9 |
| 20260906042633 | 27 | 159 | 3.2 | 8.0 | 0.00 | 0.00 | 0.00 | 75 | 1015.8 |
| 20260906042128 | 27 | 145 | 1.6 | 3.2 | 0.00 | 0.00 | 0.00 | 74 | 1015.9 |
| 20260906041623 | 27 | 146 | 1.6 | 8.0 | 0.00 | 0.00 | 0.00 | 74 | 1015.8 |
| 20260906041118 | 27 | 146 | 0.0 | 8.0 | 0.00 | 0.00 | 0.00 | 74 | 1015.9 |
| 20260906040614 | 27 | 140 | 1.6 | 4.8 | 0.00 | 0.00 | 0.00 | 73 | 1015.8 |
| 20260906040109 | 27 | 144 | 0.0 | 3.2 | 0.00 | 0.00 | 0.00 | 73 | 1016.0 |
| 20260906035604 | 28 | 135 | 1.6 | 9.7 | 0.00 | 0.00 | 0.00 | 73 | 1015.7 |
| 20260906035059 | 28 | 155 | 3.2 | 9.7 | 0.00 | 0.00 | 0.00 | 72 | 1015.7 |
| 20260906034554 | 28 | 127 | 3.2 | 4.8 | 0.00 | 0.00 | 0.00 | 72 | 1015.7 |
| 20260906034049 | 28 | 145 | 3.2 | 4.8 | 0.00 | 0.00 | 0.00 | 71 | 1015.9 |
| 20260906033544 | 28 | 141 | 1.6 | 8.0 | 0.00 | 0.00 | 0.00 | 71 | 1015.8 |
| 20260906033039 | 28 | 150 | 1.6 | 9.7 | 0.00 | 0.00 | 0.00 | 71 | 1015.7 |
| 20260906032536 | 28 | 147 | 4.8 | 9.7 | 0.00 | 0.00 | 0.00 | 70 | 1015.7 |
| 20260906032030 | 28 | 122 | 1.6 | 9.7 | 0.00 | 0.00 | 0.00 | 70 | 1015.8 |
| 20260906031526 | 28 | 141 | 3.2 | 9.7 | 0.00 | 0.00 | 0.00 | 69 | 1015.4 |
| 20260906031021 | 28 | 156 | 6.4 | 14.5 | 0.00 | 0.00 | 0.00 | 69 | 1015.6 |
| 20260906030521 | 28 | 106 | 8.0 | 9.7 | 0.00 | 0.00 | 0.00 | 69 | 1015.6 |
| 20260906030020 | 29 | 150 | 8.0 | 14.5 | 0.00 | 0.00 | 0.00 | 69 | 1015.3 |
| 20260906025520 | 29 | 109 | 4.8 | 8.0 | 0.00 | 0.00 | 0.00 | 69 | 1015.6 |
| 20260906025018 | 29 | 147 | 6.4 | 11.3 | 0.00 | 0.00 | 0.00 | 68 | 1015.3 |
| 20260906024514 | 30 | 187 | 6.4 | 12.9 | 0.00 | 0.00 | 0.00 | 68 | 1015.2 |
| 20260906024008 | 30 | 159 | 11.3 | 12.9 | 0.00 | 0.00 | 0.00 | 67 | 1014.9 |
| 20260906023504 | 30 | 147 | 9.7 | 14.5 | 0.00 | 0.00 | 0.00 | 66 | 1015.1 |
| 20260906022958 | 30 | 133 | 3.2 | 11.3 | 0.00 | 0.00 | 0.00 | 64 | 1015.0 |
| 20260906022449 | 30 | 147 | 4.8 | 11.3 | 0.00 | 0.00 | 0.00 | 63 | 1014.7 |
| 20260906021943 | 30 | 142 | 4.8 | 11.3 | 0.00 | 0.00 | 0.00 | 62 | 1014.5 |
| 20260906021438 | 30 | 76 | 9.7 | 16.1 | 0.00 | 0.00 | 0.00 | 61 | 1014.4 |
| 20260906020932 | 30 | 110 | 9.7 | 12.9 | 0.00 | 0.00 | 0.00 | 60 | 1014.3 |
| 20260906020427 | 30 | 154 | 3.2 | 9.7 | 0.00 | 0.00 | 0.00 | 58 | 1014.2 |
| 20260906015921 | 30 | 135 | 4.8 | 11.3 | 0.00 | 0.00 | 0.00 | 57 | 1014.0 |
| 20260906015420 | 30 | 135 | 4.8 | 11.3 | 0.00 | 0.00 | 0.00 | 57 | 1013.9 |
| 20260906014915 | 31 | 164 | 6.4 | 9.7 | 0.00 | 0.00 | 0.00 | 56 | 1013.9 |
| 20260906014414 | 31 | 118 | 4.8 | 9.7 | 0.00 | 0.00 | 0.00 | 56 | 1013.8 |
| 20260906013905 | 31 | 146 | 8.0 | 14.5 | 0.00 | 0.00 | 0.00 | 55 | 1013.8 |
| 20260906013401 | 31 | 152 | 3.2 | 9.7 | 0.00 | 0.00 | 0.00 | 55 | 1013.9 |
| 20260906012856 | 31 | 137 | 8.0 | 11.3 | 0.00 | 0.00 | 0.00 | 56 | 1013.9 |
| 20260906012350 | 31 | 160 | 8.0 | 11.3 | 0.00 | 0.00 | 0.00 | 56 | 1014.0 |
| 20260906011845 | 31 | 135 | 3.2 | 11.3 | 0.00 | 0.00 | 0.00 | 57 | 1013.8 |
| 20260906011339 | 31 | 138 | 6.4 | 11.3 | 0.00 | 0.00 | 0.00 | 57 | 1013.7 |
| 20260906010835 | 32 | 184 | 3.2 | 8.0 | 0.00 | 0.00 | 0.00 | 56 | 1013.6 |
| 20260906010331 | 32 | 70 | 6.4 | 9.7 | 0.00 | 0.00 | 0.00 | 55 | 1013.6 |
| 20260906005826 | 32 | 124 | 3.2 | 12.9 | 0.00 | 0.00 | 0.00 | 54 | 1013.5 |
| 20260906005325 | 32 | 143 | 4.8 | 11.3 | 0.00 | 0.00 | 0.00 | 52 | 1013.7 |
| 20260906004824 | 32 | 133 | 8.0 | 11.3 | 0.00 | 0.00 | 0.00 | 52 | 1013.7 |
| 20260906004324 | 33 | 153 | 4.8 | 9.7 | 0.00 | 0.00 | 0.00 | 52 | 1013.8 |
| 20260906003820 | 33 | 113 | 4.8 | 8.0 | 0.00 | 0.00 | 0.00 | 52 | 1013.8 |
| 20260906003315 | 33 | 138 | 8.0 | 12.9 | 0.00 | 0.00 | 0.00 | 52 | 1013.6 |
| 20260906002810 | 33 | 150 | 6.4 | 12.9 | 0.00 | 0.00 | 0.00 | 52 | 1013.6 |
| 20260906002309 | 33 | 130 | 9.7 | 17.7 | 0.00 | 0.00 | 0.00 | 51 | 1013.6 |
| 20260906001805 | 33 | 89 | 4.8 | 9.7 | 0.00 | 0.00 | 0.00 | 51 | 1013.5 |
| 20260906001301 | 34 | 124 | 8.0 | 12.9 | 0.00 | 0.00 | 0.00 | 51 | 1013.5 |
| 20260906000755 | 34 | 133 | 4.8 | 11.3 | 0.00 | 0.00 | 0.00 | 50 | 1013.5 |
| 20260906000250 | 34 | 136 | 4.8 | 14.5 | 0.00 | 0.00 | 0.00 | 50 | 1013.4 |
| 20260905235745 | 35 | 161 | 8.0 | 14.5 | 0.00 | 0.00 | 0.00 | 49 | 1013.4 |
| 20260905235244 | 35 | 133 | 1.6 | 12.9 | 0.00 | 0.00 | 0.00 | 46 | 1013.4 |